• Join FlightAware (Why Join?)
  • Login
  • US Flag 
06:46PM EDT


 

Airport Tracker/Info


-or-


 

Live Flight TrackerFlight Track Log ✈ UAL5835 ✈ 12-Jul-2013 ✈ KORD - KFSD

Flight Track Log - Related Links

Times and Time Zones

All times are in EDT time to prevent confusion due to time zone crossing. See the UAL5835 flight status page for this flight to view local times or setup timezone preferences in your user account.

Time Position Orientation Groundspeed Altitude Reporting Facility
EDT Latitude Longitude Course Direction KTS MPH feet Rate Location/Type
01:29PM 41.9411 -87.9139 270° West 176 203 34,000  Level Chicago Center
01:30PM 41.9053 -87.9600 224° Southwest 203 234 3,700 -13,500 Descending Chicago Center
01:31PM 41.8428 -88.0386 223° Southwest 249 287 6,100 2,400 Climbing Chicago Center
01:32PM 41.9667 -88.4468 270° West  Level FlightAware Approximate
01:32PM 41.8606 -88.1311 284° West 272 313 8,700  Level Chicago Center
01:33PM 41.9668 -88.5835 270° West  Level FlightAware Approximate
01:33PM 41.8942 -88.2183 297° West 267 307 10,700  Level Chicago Center
01:34PM 41.9667 -88.7202 270° West  Level FlightAware Approximate
01:34PM 41.9314 -88.3169 297° West 289 333 11,800  Level Chicago Center
01:35PM 41.9731 -88.4297 296° West 324 373 12,800 1,020 Climbing Chicago Center
01:36PM 42.0278 -88.5719 297° West 352 405 14,000 1,200 Climbing Chicago Center
01:37PM 42.0694 -88.6958 294° West 368 423 15,400 1,200 Climbing Chicago Center
01:38PM 42.0806 -88.8339 276° West 372 428 16,600 1,080 Climbing Chicago Center
01:39PM 42.0919 -88.9717 276° West 372 428 17,700 1,200 Climbing Chicago Center
01:40PM 42.1056 -89.1342 276° West 373 429 19,200 1,200 Climbing Chicago Center
01:41PM 42.1167 -89.2758 276° West 380 437 20,300 960 Climbing Chicago Center
01:42PM 42.1258 -89.4203 275° West 386 444 21,200 840 Climbing Chicago Center
01:43PM 42.1353 -89.5689 275° West 395 455 22,100 960 Climbing Chicago Center
01:44PM 42.1461 -89.7164 276° West 395 455 23,200 1,020 Climbing Chicago Center
01:45PM 42.1550 -89.8603 275° West 388 447 24,300 1,080 Climbing Chicago Center
01:46PM 42.1647 -90.0150 275° West 387 445 25,500 1,080 Climbing Chicago Center
01:47PM 42.1731 -90.1567 275° West 384 442 26,600 1,080 Climbing Chicago Center
01:48PM 42.1611 -90.3006 264° West 389 448 27,800 1,200 Climbing Chicago Center
01:49PM 42.1503 -90.4733 265° West 389 448 29,200 1,140 Climbing Chicago Center
01:50PM 42.1397 -90.6189 264° West 392 451 30,200 960 Climbing Chicago Center
01:51PM 42.1292 -90.7647 264° West 395 455 31,300 840 Climbing Chicago Center
01:52PM 42.1181 -90.9128 264° West 399 459 32,000 540 Climbing Chicago Center
01:54PM 42.1086 -91.0694 265° West 416 479 32,500 780 Climbing Chicago Center
01:55PM 42.0931 -91.2608 264° West 427 491 33,700 720 Climbing Chicago Center
01:56PM 42.0831 -91.4192 265° West 427 491 34,000 120 Climbing Chicago Center
01:57PM 42.0731 -91.5853 265° West 442 509 34,000  Level Chicago Center
01:58PM 42.0983 -91.7414 282° West 438 504 34,000  Level Chicago Center
01:59PM 42.1447 -91.8883 293° West 425 489 34,000  Level Chicago Center
02:00PM 42.1925 -92.0344 294° West 430 495 34,000  Level Chicago Center
02:01PM 42.2483 -92.2094 293° West 426 490 34,000  Level Chicago Center
02:02PM 42.2950 -92.3553 293° West 424 488 34,000  Level Chicago Center
02:03PM 42.3403 -92.5008 293° West 423 487 34,000  Level Chicago Center
02:04PM 42.3875 -92.6456 294° West 423 487 34,000  Level Chicago Center
02:05PM 42.4336 -92.7936 293° West 426 490 34,000  Level Chicago Center
02:06PM 42.4872 -92.9672 293° West 422 486 34,000  Level Chicago Center
02:07PM 42.5344 -93.1147 294° West 427 491 34,000  Level Chicago Center
02:08PM 42.5786 -93.2594 293° West 421 484 34,000  Level Chicago Center
02:09PM 42.6233 -93.4056 293° West 422 486 34,000  Level Chicago Center
02:10PM 42.6667 -93.5522 292° West 421 484 34,000  Level Chicago Center
02:11PM 42.7219 -93.7272 293° West 423 487 34,000  Level Chicago Center
02:12PM 42.7656 -93.8753 292° West 423 487 34,000  Level Chicago Center
02:13PM 42.8106 -94.0225 293° West 425 489 34,000  Level Chicago Center
02:14PM 42.8528 -94.1703 291° West 423 487 34,000  Level Chicago Center
02:16PM 42.9150 -94.3750 293° West 420 483 34,000  Level Minneapolis Center
02:17PM 42.9594 -94.5228 292° West 425 489 34,000  Level Minneapolis Center
02:18PM 43.0097 -94.6831 293° West 419 482 34,000  Level Minneapolis Center
02:19PM 43.0561 -94.8300 293° West 421 484 34,000  Level Minneapolis Center
02:20PM 43.1058 -95.0111 291° West 422 486 34,000  Level Minneapolis Center
02:21PM 43.1447 -95.1647 289° West 427 491 34,000 -240 Level Minneapolis Center
02:22PM 43.1872 -95.3131 291° West 422 486 33,600 -1,680 Descending Minneapolis Center
02:23PM 43.2275 -95.4536 292° West 404 465 30,600 -3,420 Descending Minneapolis Center
02:24PM 43.2689 -95.6006 291° West 409 471 26,600 -3,780 Descending Minneapolis Center
02:25PM 43.3111 -95.7525 291° West 422 486 22,900 -4,020 Descending Minneapolis Center
02:26PM 43.3603 -95.9292 291° West 414 476 18,300 -4,140 Descending Minneapolis Center
02:27PM 43.4056 -96.0908 291° West 384 442 13,500 -3,240 Descending Minneapolis Center
02:28PM 43.4422 -96.2139 292° West 362 417 11,000 -1,980 Descending Minneapolis Center
02:29PM 43.4728 -96.3064 295° West 305 351 9,500 -1,740 Descending Minneapolis Center
02:30PM 43.4925 -96.4031 286° West 276 318 7,500 -1,740 Descending Minneapolis Center
02:31PM 43.5175 -96.4797 294° West 272 313 6,000 -1,500 Descending Minneapolis Center
02:32PM 43.5722 -96.5914 304° West 261 300 4,500 -1,500 Descending Minneapolis Center